sensor_id;sensor_type;location;lat;lon;timestamp;temperature;humidity
14786;DHT22;7484;49.906;9.058;2023-04-03T00:00:38;4.90;99.90
14786;DHT22;7484;49.906;9.058;2023-04-03T00:03:05;4.80;99.90
14786;DHT22;7484;49.906;9.058;2023-04-03T00:05:32;4.70;99.90
14786;DHT22;7484;49.906;9.058;2023-04-03T00:07:59;4.70;99.90
14786;DHT22;7484;49.906;9.058;2023-04-03T00:10:28;4.60;99.90
14786;DHT22;7484;49.906;9.058;2023-04-03T00:12:55;4.60;99.90
14786;DHT22;7484;49.906;9.058;2023-04-03T00:15:22;4.40;99.90
14786;DHT22;7484;49.906;9.058;2023-04-03T00:17:49;4.20;99.90
14786;DHT22;7484;49.906;9.058;2023-04-03T00:20:15;4.20;99.90
14786;DHT22;7484;49.906;9.058;2023-04-03T00:22:42;4.10;99.90
14786;DHT22;7484;49.906;9.058;2023-04-03T00:25:09;4.10;99.90
14786;DHT22;7484;49.906;9.058;2023-04-03T00:27:38;4.00;99.90
14786;DHT22;7484;49.906;9.058;2023-04-03T00:30:07;3.90;99.90
14786;DHT22;7484;49.906;9.058;2023-04-03T00:32:34;3.90;99.90
14786;DHT22;7484;49.906;9.058;2023-04-03T00:35:01;3.90;99.90
14786;DHT22;7484;49.906;9.058;2023-04-03T00:37:28;3.80;99.90
14786;DHT22;7484;49.906;9.058;2023-04-03T00:39:56;3.70;99.90
14786;DHT22;7484;49.906;9.058;2023-04-03T00:42:23;3.60;99.90
14786;DHT22;7484;49.906;9.058;2023-04-03T00:48:04;3.50;99.90
14786;DHT22;7484;49.906;9.058;2023-04-03T00:50:33;3.40;99.90
14786;DHT22;7484;49.906;9.058;2023-04-03T00:53:01;3.50;99.90
14786;DHT22;7484;49.906;9.058;2023-04-03T00:55:30;3.40;99.90
14786;DHT22;7484;49.906;9.058;2023-04-03T00:57:57;3.80;99.90
14786;DHT22;7484;49.906;9.058;2023-04-03T01:00:24;3.90;99.90
14786;DHT22;7484;49.906;9.058;2023-04-03T01:02:51;4.00;99.90
14786;DHT22;7484;49.906;9.058;2023-04-03T01:05:21;4.20;99.90
14786;DHT22;7484;49.906;9.058;2023-04-03T01:07:49;4.10;99.90
14786;DHT22;7484;49.906;9.058;2023-04-03T01:10:17;3.90;99.90
14786;DHT22;7484;49.906;9.058;2023-04-03T01:12:46;3.90;99.90
14786;DHT22;7484;49.906;9.058;2023-04-03T01:15:15;3.80;99.90
14786;DHT22;7484;49.906;9.058;2023-04-03T01:17:45;3.70;99.90
14786;DHT22;7484;49.906;9.058;2023-04-03T01:23:32;3.60;99.90
14786;DHT22;7484;49.906;9.058;2023-04-03T01:26:02;3.60;99.90
14786;DHT22;7484;49.906;9.058;2023-04-03T01:28:31;3.60;99.90
14786;DHT22;7484;49.906;9.058;2023-04-03T01:31:06;3.50;99.90
14786;DHT22;7484;49.906;9.058;2023-04-03T01:33:39;3.50;99.90
14786;DHT22;7484;49.906;9.058;2023-04-03T01:36:09;3.40;99.90
14786;DHT22;7484;49.906;9.058;2023-04-03T01:38:36;3.30;99.90
14786;DHT22;7484;49.906;9.058;2023-04-03T01:41:03;3.30;99.90
14786;DHT22;7484;49.906;9.058;2023-04-03T01:43:30;3.40;99.90
14786;DHT22;7484;49.906;9.058;2023-04-03T01:45:57;3.50;99.90
14786;DHT22;7484;49.906;9.058;2023-04-03T01:48:23;3.50;99.90
14786;DHT22;7484;49.906;9.058;2023-04-03T01:50:51;3.70;99.90
14786;DHT22;7484;49.906;9.058;2023-04-03T01:53:18;3.70;99.90
14786;DHT22;7484;49.906;9.058;2023-04-03T01:55:45;3.60;99.90
14786;DHT22;7484;49.906;9.058;2023-04-03T01:58:12;3.50;99.90
14786;DHT22;7484;49.906;9.058;2023-04-03T02:00:38;3.40;99.90
14786;DHT22;7484;49.906;9.058;2023-04-03T02:03:05;3.50;99.90
14786;DHT22;7484;49.906;9.058;2023-04-03T02:05:32;3.50;99.90
14786;DHT22;7484;49.906;9.058;2023-04-03T02:08:00;3.50;99.90
14786;DHT22;7484;49.906;9.058;2023-04-03T02:10:28;3.50;99.90
14786;DHT22;7484;49.906;9.058;2023-04-03T02:12:56;3.50;99.90
14786;DHT22;7484;49.906;9.058;2023-04-03T02:15:24;3.60;99.90
14786;DHT22;7484;49.906;9.058;2023-04-03T02:17:51;3.60;99.90
14786;DHT22;7484;49.906;9.058;2023-04-03T02:20:19;3.60;99.90
14786;DHT22;7484;49.906;9.058;2023-04-03T02:22:46;3.60;99.90
14786;DHT22;7484;49.906;9.058;2023-04-03T02:25:15;3.50;99.90
14786;DHT22;7484;49.906;9.058;2023-04-03T02:27:43;3.50;99.90
14786;DHT22;7484;49.906;9.058;2023-04-03T02:30:10;3.40;99.90
14786;DHT22;7484;49.906;9.058;2023-04-03T02:32:37;3.50;99.90
14786;DHT22;7484;49.906;9.058;2023-04-03T02:35:04;3.60;99.90
14786;DHT22;7484;49.906;9.058;2023-04-03T02:37:32;3.60;99.90
14786;DHT22;7484;49.906;9.058;2023-04-03T02:39:58;3.50;99.90
14786;DHT22;7484;49.906;9.058;2023-04-03T02:42:28;3.50;99.90
14786;DHT22;7484;49.906;9.058;2023-04-03T02:44:54;3.70;99.90
14786;DHT22;7484;49.906;9.058;2023-04-03T02:47:21;3.60;99.90
14786;DHT22;7484;49.906;9.058;2023-04-03T02:49:48;3.50;99.90
14786;DHT22;7484;49.906;9.058;2023-04-03T02:52:15;3.50;99.90
14786;DHT22;7484;49.906;9.058;2023-04-03T02:54:42;3.50;99.90
14786;DHT22;7484;49.906;9.058;2023-04-03T02:57:10;3.60;99.90
14786;DHT22;7484;49.906;9.058;2023-04-03T02:59:38;3.60;99.90
14786;DHT22;7484;49.906;9.058;2023-04-03T03:02:06;3.50;99.90
14786;DHT22;7484;49.906;9.058;2023-04-03T03:04:34;3.50;99.90
14786;DHT22;7484;49.906;9.058;2023-04-03T03:07:00;3.40;99.90
14786;DHT22;7484;49.906;9.058;2023-04-03T03:09:28;3.30;99.90
14786;DHT22;7484;49.906;9.058;2023-04-03T03:11:55;3.30;99.90
14786;DHT22;7484;49.906;9.058;2023-04-03T03:14:22;3.30;99.90
14786;DHT22;7484;49.906;9.058;2023-04-03T03:16:50;3.20;99.90
14786;DHT22;7484;49.906;9.058;2023-04-03T03:19:17;3.20;99.90
14786;DHT22;7484;49.906;9.058;2023-04-03T03:21:43;3.20;99.90
14786;DHT22;7484;49.906;9.058;2023-04-03T03:24:10;3.10;99.90
14786;DHT22;7484;49.906;9.058;2023-04-03T03:26:37;3.20;99.90
14786;DHT22;7484;49.906;9.058;2023-04-03T03:29:04;3.10;99.90
14786;DHT22;7484;49.906;9.058;2023-04-03T03:31:31;3.10;99.90
14786;DHT22;7484;49.906;9.058;2023-04-03T03:33:59;3.20;99.90
14786;DHT22;7484;49.906;9.058;2023-04-03T03:36:26;3.20;99.90
14786;DHT22;7484;49.906;9.058;2023-04-03T03:38:52;3.10;99.90
14786;DHT22;7484;49.906;9.058;2023-04-03T03:41:19;3.10;99.90
14786;DHT22;7484;49.906;9.058;2023-04-03T03:43:46;3.10;99.90
14786;DHT22;7484;49.906;9.058;2023-04-03T03:46:15;3.10;99.90
14786;DHT22;7484;49.906;9.058;2023-04-03T03:48:41;3.00;99.90
14786;DHT22;7484;49.906;9.058;2023-04-03T03:51:09;3.10;99.90
14786;DHT22;7484;49.906;9.058;2023-04-03T03:53:38;3.20;99.90
14786;DHT22;7484;49.906;9.058;2023-04-03T03:56:08;3.20;99.90
14786;DHT22;7484;49.906;9.058;2023-04-03T03:58:38;3.20;99.90
14786;DHT22;7484;49.906;9.058;2023-04-03T04:01:06;3.30;99.90
14786;DHT22;7484;49.906;9.058;2023-04-03T04:03:38;3.30;99.90
14786;DHT22;7484;49.906;9.058;2023-04-03T04:06:07;3.30;99.90
14786;DHT22;7484;49.906;9.058;2023-04-03T04:08:36;3.40;99.90
14786;DHT22;7484;49.906;9.058;2023-04-03T04:11:05;3.30;99.90
14786;DHT22;7484;49.906;9.058;2023-04-03T04:13:33;3.30;99.90
14786;DHT22;7484;49.906;9.058;2023-04-03T04:16:00;3.30;99.90
14786;DHT22;7484;49.906;9.058;2023-04-03T04:18:28;3.30;99.90
14786;DHT22;7484;49.906;9.058;2023-04-03T04:20:55;3.40;99.90
14786;DHT22;7484;49.906;9.058;2023-04-03T04:23:22;3.50;99.90
14786;DHT22;7484;49.906;9.058;2023-04-03T04:25:51;3.60;99.90
14786;DHT22;7484;49.906;9.058;2023-04-03T04:28:19;3.80;99.90
14786;DHT22;7484;49.906;9.058;2023-04-03T04:30:48;3.80;99.90
14786;DHT22;7484;49.906;9.058;2023-04-03T04:33:16;3.70;99.90
14786;DHT22;7484;49.906;9.058;2023-04-03T04:35:43;3.80;99.90
14786;DHT22;7484;49.906;9.058;2023-04-03T04:38:11;3.60;99.90
14786;DHT22;7484;49.906;9.058;2023-04-03T04:40:38;3.50;99.90
14786;DHT22;7484;49.906;9.058;2023-04-03T04:43:07;3.40;99.90
14786;DHT22;7484;49.906;9.058;2023-04-03T04:45:34;3.40;99.90
14786;DHT22;7484;49.906;9.058;2023-04-03T04:48:01;3.30;99.90
14786;DHT22;7484;49.906;9.058;2023-04-03T04:50:28;3.30;99.90
14786;DHT22;7484;49.906;9.058;2023-04-03T04:52:55;3.20;99.90
14786;DHT22;7484;49.906;9.058;2023-04-03T04:55:22;3.30;99.90
14786;DHT22;7484;49.906;9.058;2023-04-03T04:57:49;3.30;99.90
14786;DHT22;7484;49.906;9.058;2023-04-03T05:00:19;3.30;99.90
14786;DHT22;7484;49.906;9.058;2023-04-03T05:02:46;3.30;99.90
14786;DHT22;7484;49.906;9.058;2023-04-03T05:05:13;3.30;99.90
14786;DHT22;7484;49.906;9.058;2023-04-03T05:07:40;3.30;99.90
14786;DHT22;7484;49.906;9.058;2023-04-03T05:10:08;3.30;99.90
14786;DHT22;7484;49.906;9.058;2023-04-03T05:12:35;3.50;99.90
14786;DHT22;7484;49.906;9.058;2023-04-03T05:15:04;3.60;99.90
14786;DHT22;7484;49.906;9.058;2023-04-03T05:17:33;3.70;99.90
14786;DHT22;7484;49.906;9.058;2023-04-03T05:20:01;3.80;99.90
14786;DHT22;7484;49.906;9.058;2023-04-03T05:22:29;4.00;99.90
14786;DHT22;7484;49.906;9.058;2023-04-03T05:25:02;4.10;99.90
14786;DHT22;7484;49.906;9.058;2023-04-03T05:27:29;4.00;99.90
14786;DHT22;7484;49.906;9.058;2023-04-03T05:29:57;4.00;99.90
14786;DHT22;7484;49.906;9.058;2023-04-03T05:32:25;3.90;99.90
14786;DHT22;7484;49.906;9.058;2023-04-03T05:35:04;3.80;99.90
14786;DHT22;7484;49.906;9.058;2023-04-03T05:37:32;3.90;99.90
14786;DHT22;7484;49.906;9.058;2023-04-03T05:39:59;3.90;99.90
14786;DHT22;7484;49.906;9.058;2023-04-03T05:42:26;3.90;99.90
14786;DHT22;7484;49.906;9.058;2023-04-03T05:44:53;3.80;99.90
14786;DHT22;7484;49.906;9.058;2023-04-03T05:47:20;3.80;99.90
14786;DHT22;7484;49.906;9.058;2023-04-03T05:49:47;3.80;99.90
14786;DHT22;7484;49.906;9.058;2023-04-03T05:52:22;3.90;99.90
14786;DHT22;7484;49.906;9.058;2023-04-03T05:54:49;4.10;99.90
14786;DHT22;7484;49.906;9.058;2023-04-03T05:57:23;4.10;99.90
14786;DHT22;7484;49.906;9.058;2023-04-03T05:59:50;4.30;99.90
14786;DHT22;7484;49.906;9.058;2023-04-03T06:02:19;4.50;99.90
14786;DHT22;7484;49.906;9.058;2023-04-03T06:04:47;4.50;99.90
14786;DHT22;7484;49.906;9.058;2023-04-03T06:07:16;4.60;99.90
14786;DHT22;7484;49.906;9.058;2023-04-03T06:09:45;4.70;99.90
14786;DHT22;7484;49.906;9.058;2023-04-03T06:12:12;4.70;99.90
14786;DHT22;7484;49.906;9.058;2023-04-03T06:14:39;4.80;99.90
14786;DHT22;7484;49.906;9.058;2023-04-03T06:17:07;4.80;99.90
14786;DHT22;7484;49.906;9.058;2023-04-03T06:19:34;4.80;99.90
14786;DHT22;7484;49.906;9.058;2023-04-03T06:22:01;4.90;99.90
14786;DHT22;7484;49.906;9.058;2023-04-03T06:24:30;4.90;99.90
14786;DHT22;7484;49.906;9.058;2023-04-03T06:26:59;4.90;99.90
14786;DHT22;7484;49.906;9.058;2023-04-03T06:29:25;5.00;99.90
14786;DHT22;7484;49.906;9.058;2023-04-03T06:31:52;5.00;99.90
14786;DHT22;7484;49.906;9.058;2023-04-03T06:34:19;5.10;99.90
14786;DHT22;7484;49.906;9.058;2023-04-03T06:36:46;5.10;99.90
14786;DHT22;7484;49.906;9.058;2023-04-03T06:39:16;5.10;99.90
14786;DHT22;7484;49.906;9.058;2023-04-03T06:41:44;5.00;99.90
14786;DHT22;7484;49.906;9.058;2023-04-03T06:44:12;4.90;99.90
14786;DHT22;7484;49.906;9.058;2023-04-03T06:46:41;4.80;99.90
14786;DHT22;7484;49.906;9.058;2023-04-03T06:49:08;5.00;99.90
14786;DHT22;7484;49.906;9.058;2023-04-03T06:51:36;5.10;99.90
14786;DHT22;7484;49.906;9.058;2023-04-03T06:54:05;5.20;99.90
14786;DHT22;7484;49.906;9.058;2023-04-03T06:56:32;5.20;99.90
14786;DHT22;7484;49.906;9.058;2023-04-03T06:58:59;5.20;99.90
14786;DHT22;7484;49.906;9.058;2023-04-03T07:01:28;5.30;99.90
14786;DHT22;7484;49.906;9.058;2023-04-03T07:03:56;5.40;99.90
14786;DHT22;7484;49.906;9.058;2023-04-03T07:06:23;5.40;99.90
14786;DHT22;7484;49.906;9.058;2023-04-03T07:08:52;5.40;99.90
14786;DHT22;7484;49.906;9.058;2023-04-03T07:11:19;5.40;99.90
14786;DHT22;7484;49.906;9.058;2023-04-03T07:13:45;5.40;99.90
14786;DHT22;7484;49.906;9.058;2023-04-03T07:16:12;5.40;99.90
14786;DHT22;7484;49.906;9.058;2023-04-03T07:18:40;5.50;99.90
14786;DHT22;7484;49.906;9.058;2023-04-03T07:21:07;5.60;99.90
14786;DHT22;7484;49.906;9.058;2023-04-03T07:23:34;5.60;99.90
14786;DHT22;7484;49.906;9.058;2023-04-03T07:26:01;5.60;99.90
14786;DHT22;7484;49.906;9.058;2023-04-03T07:28:28;5.60;99.90
14786;DHT22;7484;49.906;9.058;2023-04-03T07:31:01;5.70;99.90
14786;DHT22;7484;49.906;9.058;2023-04-03T07:33:28;5.80;99.90
14786;DHT22;7484;49.906;9.058;2023-04-03T07:35:56;5.80;99.90
14786;DHT22;7484;49.906;9.058;2023-04-03T07:38:23;5.80;99.90
14786;DHT22;7484;49.906;9.058;2023-04-03T07:40:51;5.90;99.90
14786;DHT22;7484;49.906;9.058;2023-04-03T07:43:19;5.90;99.90
14786;DHT22;7484;49.906;9.058;2023-04-03T07:45:47;5.90;99.90
14786;DHT22;7484;49.906;9.058;2023-04-03T07:48:16;6.00;99.90
14786;DHT22;7484;49.906;9.058;2023-04-03T07:50:44;6.00;99.90
14786;DHT22;7484;49.906;9.058;2023-04-03T07:53:12;6.00;99.90
14786;DHT22;7484;49.906;9.058;2023-04-03T07:55:40;6.00;99.90
14786;DHT22;7484;49.906;9.058;2023-04-03T07:58:09;6.10;99.90
14786;DHT22;7484;49.906;9.058;2023-04-03T08:00:36;6.10;99.90
14786;DHT22;7484;49.906;9.058;2023-04-03T08:03:03;6.10;99.90
14786;DHT22;7484;49.906;9.058;2023-04-03T08:05:30;6.10;99.90
14786;DHT22;7484;49.906;9.058;2023-04-03T08:07:57;6.20;99.90
14786;DHT22;7484;49.906;9.058;2023-04-03T08:10:25;6.30;99.90
14786;DHT22;7484;49.906;9.058;2023-04-03T08:12:52;6.20;99.90
14786;DHT22;7484;49.906;9.058;2023-04-03T08:15:19;6.30;99.90
14786;DHT22;7484;49.906;9.058;2023-04-03T08:17:46;6.20;99.90
14786;DHT22;7484;49.906;9.058;2023-04-03T08:20:12;6.40;99.90
14786;DHT22;7484;49.906;9.058;2023-04-03T08:22:39;6.40;99.90
14786;DHT22;7484;49.906;9.058;2023-04-03T08:25:07;6.60;99.90
14786;DHT22;7484;49.906;9.058;2023-04-03T08:27:35;6.70;99.90
14786;DHT22;7484;49.906;9.058;2023-04-03T08:30:03;6.60;99.90
14786;DHT22;7484;49.906;9.058;2023-04-03T08:32:29;6.60;99.90
14786;DHT22;7484;49.906;9.058;2023-04-03T08:34:56;6.70;99.90
14786;DHT22;7484;49.906;9.058;2023-04-03T08:37:23;6.70;99.90
14786;DHT22;7484;49.906;9.058;2023-04-03T08:39:49;6.70;99.90
14786;DHT22;7484;49.906;9.058;2023-04-03T08:42:24;6.70;99.90
14786;DHT22;7484;49.906;9.058;2023-04-03T08:45:00;6.90;99.90
14786;DHT22;7484;49.906;9.058;2023-04-03T08:47:33;7.00;99.90
14786;DHT22;7484;49.906;9.058;2023-04-03T08:50:05;7.20;99.90
14786;DHT22;7484;49.906;9.058;2023-04-03T08:52:36;7.20;99.90
14786;DHT22;7484;49.906;9.058;2023-04-03T08:55:05;7.30;99.90
14786;DHT22;7484;49.906;9.058;2023-04-03T08:57:35;7.50;99.90
14786;DHT22;7484;49.906;9.058;2023-04-03T09:00:16;7.40;99.90
14786;DHT22;7484;49.906;9.058;2023-04-03T09:02:45;7.20;99.90
14786;DHT22;7484;49.906;9.058;2023-04-03T09:05:19;7.00;99.90
14786;DHT22;7484;49.906;9.058;2023-04-03T09:07:50;7.10;99.90
14786;DHT22;7484;49.906;9.058;2023-04-03T09:10:24;7.10;99.90
14786;DHT22;7484;49.906;9.058;2023-04-03T09:12:57;7.20;99.90
14786;DHT22;7484;49.906;9.058;2023-04-03T09:15:27;7.10;99.90
14786;DHT22;7484;49.906;9.058;2023-04-03T09:18:02;7.10;99.30
14786;DHT22;7484;49.906;9.058;2023-04-03T09:20:38;7.10;99.90
14786;DHT22;7484;49.906;9.058;2023-04-03T09:23:13;7.20;99.90
14786;DHT22;7484;49.906;9.058;2023-04-03T09:25:42;7.30;99.90
14786;DHT22;7484;49.906;9.058;2023-04-03T09:28:09;7.40;99.90
14786;DHT22;7484;49.906;9.058;2023-04-03T09:30:37;7.30;99.90
14786;DHT22;7484;49.906;9.058;2023-04-03T09:33:04;7.40;99.60
14786;DHT22;7484;49.906;9.058;2023-04-03T09:35:34;7.40;98.80
14786;DHT22;7484;49.906;9.058;2023-04-03T09:38:13;7.50;99.40
14786;DHT22;7484;49.906;9.058;2023-04-03T09:40:42;7.70;98.60
14786;DHT22;7484;49.906;9.058;2023-04-03T09:43:21;8.00;99.40
14786;DHT22;7484;49.906;9.058;2023-04-03T09:45:51;8.40;98.50
14786;DHT22;7484;49.906;9.058;2023-04-03T09:48:20;8.30;97.50
14786;DHT22;7484;49.906;9.058;2023-04-03T09:51:08;8.20;98.00
14786;DHT22;7484;49.906;9.058;2023-04-03T09:53:39;8.20;98.20
14786;DHT22;7484;49.906;9.058;2023-04-03T09:56:20;8.40;98.20
14786;DHT22;7484;49.906;9.058;2023-04-03T09:58:49;8.60;97.90
14786;DHT22;7484;49.906;9.058;2023-04-03T10:01:24;8.50;98.20
14786;DHT22;7484;49.906;9.058;2023-04-03T10:04:07;8.50;97.80
14786;DHT22;7484;49.906;9.058;2023-04-03T10:06:36;8.30;98.40
14786;DHT22;7484;49.906;9.058;2023-04-03T10:09:05;8.20;98.00
14786;DHT22;7484;49.906;9.058;2023-04-03T10:11:32;8.10;98.30
14786;DHT22;7484;49.906;9.058;2023-04-03T10:14:00;8.10;97.90
14786;DHT22;7484;49.906;9.058;2023-04-03T10:16:35;8.00;97.60
14786;DHT22;7484;49.906;9.058;2023-04-03T10:19:27;7.90;97.50
14786;DHT22;7484;49.906;9.058;2023-04-03T10:21:59;7.90;97.40
14786;DHT22;7484;49.906;9.058;2023-04-03T10:24:33;8.00;97.30
14786;DHT22;7484;49.906;9.058;2023-04-03T10:27:05;8.00;98.10
14786;DHT22;7484;49.906;9.058;2023-04-03T10:29:42;8.00;98.00
14786;DHT22;7484;49.906;9.058;2023-04-03T10:32:30;8.10;98.40
14786;DHT22;7484;49.906;9.058;2023-04-03T10:35:03;8.10;98.00
14786;DHT22;7484;49.906;9.058;2023-04-03T10:37:50;8.10;97.50
14786;DHT22;7484;49.906;9.058;2023-04-03T10:40:28;8.30;96.70
14786;DHT22;7484;49.906;9.058;2023-04-03T10:43:02;8.40;96.40
14786;DHT22;7484;49.906;9.058;2023-04-03T10:45:36;8.20;96.70
14786;DHT22;7484;49.906;9.058;2023-04-03T10:48:17;8.20;97.10
14786;DHT22;7484;49.906;9.058;2023-04-03T10:50:55;8.10;97.70
14786;DHT22;7484;49.906;9.058;2023-04-03T10:53:30;8.10;98.60
14786;DHT22;7484;49.906;9.058;2023-04-03T10:56:02;8.10;98.30
14786;DHT22;7484;49.906;9.058;2023-04-03T10:58:34;8.20;98.40
14786;DHT22;7484;49.906;9.058;2023-04-03T11:01:07;8.20;97.40
14786;DHT22;7484;49.906;9.058;2023-04-03T11:03:39;8.20;97.30
14786;DHT22;7484;49.906;9.058;2023-04-03T11:06:09;8.20;97.00
14786;DHT22;7484;49.906;9.058;2023-04-03T11:08:39;8.10;97.10
14786;DHT22;7484;49.906;9.058;2023-04-03T11:11:12;8.10;96.70
14786;DHT22;7484;49.906;9.058;2023-04-03T11:13:43;8.10;96.70
14786;DHT22;7484;49.906;9.058;2023-04-03T11:16:15;8.20;97.20
14786;DHT22;7484;49.906;9.058;2023-04-03T11:18:49;8.20;97.50
14786;DHT22;7484;49.906;9.058;2023-04-03T11:21:21;8.20;96.90
14786;DHT22;7484;49.906;9.058;2023-04-03T11:23:51;8.20;96.20
14786;DHT22;7484;49.906;9.058;2023-04-03T11:26:20;8.40;95.30
14786;DHT22;7484;49.906;9.058;2023-04-03T11:28:53;8.80;95.30
14786;DHT22;7484;49.906;9.058;2023-04-03T11:31:33;9.00;95.40
14786;DHT22;7484;49.906;9.058;2023-04-03T11:34:13;8.90;94.10
14786;DHT22;7484;49.906;9.058;2023-04-03T11:36:44;8.80;93.80
14786;DHT22;7484;49.906;9.058;2023-04-03T11:39:20;8.70;93.20
14786;DHT22;7484;49.906;9.058;2023-04-03T11:41:49;8.70;94.90
14786;DHT22;7484;49.906;9.058;2023-04-03T11:44:32;8.90;93.40
14786;DHT22;7484;49.906;9.058;2023-04-03T11:47:02;9.20;92.00
14786;DHT22;7484;49.906;9.058;2023-04-03T11:49:59;9.60;91.50
14786;DHT22;7484;49.906;9.058;2023-04-03T11:52:55;10.00;89.10
14786;DHT22;7484;49.906;9.058;2023-04-03T11:55:45;10.50;86.40
14786;DHT22;7484;49.906;9.058;2023-04-03T11:58:19;10.50;84.80
14786;DHT22;7484;49.906;9.058;2023-04-03T12:00:51;10.40;83.00
14786;DHT22;7484;49.906;9.058;2023-04-03T12:03:31;10.40;84.50
14786;DHT22;7484;49.906;9.058;2023-04-03T12:09:28;9.80;84.10
14786;DHT22;7484;49.906;9.058;2023-04-03T12:11:57;10.30;83.20
14786;DHT22;7484;49.906;9.058;2023-04-03T12:14:25;10.60;81.60
14786;DHT22;7484;49.906;9.058;2023-04-03T12:16:53;10.90;83.30
14786;DHT22;7484;49.906;9.058;2023-04-03T12:19:34;11.00;78.10
14786;DHT22;7484;49.906;9.058;2023-04-03T12:22:09;10.90;76.90
14786;DHT22;7484;49.906;9.058;2023-04-03T12:24:38;10.80;73.50
14786;DHT22;7484;49.906;9.058;2023-04-03T12:27:21;10.70;73.80
14786;DHT22;7484;49.906;9.058;2023-04-03T12:29:53;10.80;78.20
14786;DHT22;7484;49.906;9.058;2023-04-03T12:32:32;11.00;75.10
14786;DHT22;7484;49.906;9.058;2023-04-03T12:35:14;10.90;76.60
14786;DHT22;7484;49.906;9.058;2023-04-03T12:38:10;10.90;77.80
14786;DHT22;7484;49.906;9.058;2023-04-03T12:40:43;10.80;75.90
14786;DHT22;7484;49.906;9.058;2023-04-03T12:43:31;10.90;74.50
14786;DHT22;7484;49.906;9.058;2023-04-03T12:46:04;10.90;73.00
14786;DHT22;7484;49.906;9.058;2023-04-03T12:48:39;11.00;71.40
14786;DHT22;7484;49.906;9.058;2023-04-03T12:51:13;11.00;69.10
14786;DHT22;7484;49.906;9.058;2023-04-03T12:53:42;11.20;72.90
14786;DHT22;7484;49.906;9.058;2023-04-03T12:56:21;11.40;70.20
14786;DHT22;7484;49.906;9.058;2023-04-03T12:58:49;11.60;70.30
14786;DHT22;7484;49.906;9.058;2023-04-03T13:01:18;11.60;66.90
14786;DHT22;7484;49.906;9.058;2023-04-03T13:03:49;11.30;67.30
14786;DHT22;7484;49.906;9.058;2023-04-03T13:06:19;11.30;66.30
14786;DHT22;7484;49.906;9.058;2023-04-03T13:08:51;11.40;66.60
14786;DHT22;7484;49.906;9.058;2023-04-03T13:11:20;11.60;67.80
14786;DHT22;7484;49.906;9.058;2023-04-03T13:13:55;11.50;67.60
14786;DHT22;7484;49.906;9.058;2023-04-03T13:16:22;11.60;69.20
14786;DHT22;7484;49.906;9.058;2023-04-03T13:18:51;11.80;66.30
14786;DHT22;7484;49.906;9.058;2023-04-03T13:21:20;11.90;66.40
14786;DHT22;7484;49.906;9.058;2023-04-03T13:23:51;12.00;65.20
14786;DHT22;7484;49.906;9.058;2023-04-03T13:26:22;12.30;62.70
14786;DHT22;7484;49.906;9.058;2023-04-03T13:28:49;12.30;61.00
14786;DHT22;7484;49.906;9.058;2023-04-03T13:31:23;12.30;61.30
14786;DHT22;7484;49.906;9.058;2023-04-03T13:33:57;12.30;60.20
14786;DHT22;7484;49.906;9.058;2023-04-03T13:36:27;12.50;61.50
14786;DHT22;7484;49.906;9.058;2023-04-03T13:39:03;12.70;63.70
14786;DHT22;7484;49.906;9.058;2023-04-03T13:41:32;12.90;60.40
14786;DHT22;7484;49.906;9.058;2023-04-03T13:44:16;12.90;63.50
14786;DHT22;7484;49.906;9.058;2023-04-03T13:46:43;13.10;61.60
14786;DHT22;7484;49.906;9.058;2023-04-03T13:49:21;12.80;62.90
14786;DHT22;7484;49.906;9.058;2023-04-03T13:51:49;12.70;61.80
14786;DHT22;7484;49.906;9.058;2023-04-03T13:54:22;12.20;62.20
14786;DHT22;7484;49.906;9.058;2023-04-03T13:56:53;12.40;59.30
14786;DHT22;7484;49.906;9.058;2023-04-03T13:59:24;12.50;61.40
14786;DHT22;7484;49.906;9.058;2023-04-03T14:01:57;12.70;61.20
14786;DHT22;7484;49.906;9.058;2023-04-03T14:04:45;12.60;60.80
14786;DHT22;7484;49.906;9.058;2023-04-03T14:07:14;13.20;58.50
14786;DHT22;7484;49.906;9.058;2023-04-03T14:09:42;13.40;58.00
14786;DHT22;7484;49.906;9.058;2023-04-03T14:12:15;13.60;57.60
14786;DHT22;7484;49.906;9.058;2023-04-03T14:14:42;13.80;58.80
14786;DHT22;7484;49.906;9.058;2023-04-03T14:17:15;14.00;58.80
14786;DHT22;7484;49.906;9.058;2023-04-03T14:19:42;13.90;57.20
14786;DHT22;7484;49.906;9.058;2023-04-03T14:22:14;14.10;56.70
14786;DHT22;7484;49.906;9.058;2023-04-03T14:24:43;14.40;56.10
14786;DHT22;7484;49.906;9.058;2023-04-03T14:27:15;13.70;56.00
14786;DHT22;7484;49.906;9.058;2023-04-03T14:29:42;13.50;56.30
14786;DHT22;7484;49.906;9.058;2023-04-03T14:32:11;13.70;56.60
14786;DHT22;7484;49.906;9.058;2023-04-03T14:34:38;14.00;55.80
14786;DHT22;7484;49.906;9.058;2023-04-03T14:37:04;13.90;55.10
14786;DHT22;7484;49.906;9.058;2023-04-03T14:39:31;14.10;55.50
14786;DHT22;7484;49.906;9.058;2023-04-03T14:42:00;13.90;54.80
14786;DHT22;7484;49.906;9.058;2023-04-03T14:44:27;13.80;54.40
14786;DHT22;7484;49.906;9.058;2023-04-03T14:46:54;13.70;55.10
14786;DHT22;7484;49.906;9.058;2023-04-03T14:49:24;13.90;56.10
14786;DHT22;7484;49.906;9.058;2023-04-03T14:51:52;13.80;53.60
14786;DHT22;7484;49.906;9.058;2023-04-03T14:54:20;14.00;54.70
14786;DHT22;7484;49.906;9.058;2023-04-03T14:56:50;14.10;55.40
14786;DHT22;7484;49.906;9.058;2023-04-03T14:59:18;14.20;55.40
14786;DHT22;7484;49.906;9.058;2023-04-03T15:01:47;14.10;52.90
14786;DHT22;7484;49.906;9.058;2023-04-03T15:04:14;14.20;54.60
14786;DHT22;7484;49.906;9.058;2023-04-03T15:06:42;14.40;54.90
14786;DHT22;7484;49.906;9.058;2023-04-03T15:09:18;14.50;52.90
14786;DHT22;7484;49.906;9.058;2023-04-03T15:11:46;14.70;51.00
14786;DHT22;7484;49.906;9.058;2023-04-03T15:14:12;14.80;51.50
14786;DHT22;7484;49.906;9.058;2023-04-03T15:16:41;15.10;58.60
14786;DHT22;7484;49.906;9.058;2023-04-03T15:19:07;15.70;52.70
14786;DHT22;7484;49.906;9.058;2023-04-03T15:21:34;15.20;51.60
14786;DHT22;7484;49.906;9.058;2023-04-03T15:24:01;15.30;50.30
14786;DHT22;7484;49.906;9.058;2023-04-03T15:26:28;15.40;51.50
14786;DHT22;7484;49.906;9.058;2023-04-03T15:28:55;15.20;51.50
14786;DHT22;7484;49.906;9.058;2023-04-03T15:31:22;14.70;51.00
14786;DHT22;7484;49.906;9.058;2023-04-03T15:33:50;14.60;51.60
14786;DHT22;7484;49.906;9.058;2023-04-03T15:36:16;14.50;53.10
14786;DHT22;7484;49.906;9.058;2023-04-03T15:38:43;14.60;53.50
14786;DHT22;7484;49.906;9.058;2023-04-03T15:41:10;14.50;54.40
14786;DHT22;7484;49.906;9.058;2023-04-03T15:43:37;14.20;54.70
14786;DHT22;7484;49.906;9.058;2023-04-03T15:46:03;14.20;54.00
14786;DHT22;7484;49.906;9.058;2023-04-03T15:48:30;14.40;53.50
14786;DHT22;7484;49.906;9.058;2023-04-03T15:50:59;14.70;53.90
14786;DHT22;7484;49.906;9.058;2023-04-03T15:53:26;14.80;52.50
14786;DHT22;7484;49.906;9.058;2023-04-03T15:55:53;14.90;52.50
14786;DHT22;7484;49.906;9.058;2023-04-03T15:58:19;15.10;52.20
14786;DHT22;7484;49.906;9.058;2023-04-03T16:00:46;15.30;52.60
14786;DHT22;7484;49.906;9.058;2023-04-03T16:03:16;15.20;52.50
14786;DHT22;7484;49.906;9.058;2023-04-03T16:05:44;15.20;53.70
14786;DHT22;7484;49.906;9.058;2023-04-03T16:08:14;15.20;52.60
14786;DHT22;7484;49.906;9.058;2023-04-03T16:10:41;14.90;52.90
14786;DHT22;7484;49.906;9.058;2023-04-03T16:13:10;14.80;54.00
14786;DHT22;7484;49.906;9.058;2023-04-03T16:15:36;14.90;53.30
14786;DHT22;7484;49.906;9.058;2023-04-03T16:18:03;14.90;54.10
14786;DHT22;7484;49.906;9.058;2023-04-03T16:20:31;14.80;54.50
14786;DHT22;7484;49.906;9.058;2023-04-03T16:22:59;14.70;53.00